< < Back
Terminal Aerodrome Forecast


Current Version              Previous Versions:   1  2  3  4  5  6  7  8  9  

Terminal Aerodrome Forecast

653
FTUS42 KFFC 022339
TAFPDK
TAF
KPDK 022339Z 0300/0324 00000KT P6SM SCT050 BKN200
     FM031500 35003KT P6SM SCT045 BKN200
     FM031800 33004KT P6SM BKN050 PROB30 0319/0323 -SHRA=



Latest METAR

710
SAUS70 KWBC 031100 RRC
MTRPDK
METAR KPDK 031053Z 00000KT 8SM FEW070 23/22 A3000 RMK AO2 SLP140
T02330222


USA.gov is the U.S. government's official web portal to all federal, state and local government web resources and services.